sensor_id;sensor_type;location;lat;lon;timestamp;temperature;humidity
17813;DHT22;9030;50.792;8.320;2024-03-25T00:00:42;4.10;99.90
17813;DHT22;9030;50.792;8.320;2024-03-25T00:03:09;4.10;99.90
17813;DHT22;9030;50.792;8.320;2024-03-25T00:05:36;4.00;99.90
17813;DHT22;9030;50.792;8.320;2024-03-25T00:08:02;4.10;99.90
17813;DHT22;9030;50.792;8.320;2024-03-25T00:10:28;4.10;99.90
17813;DHT22;9030;50.792;8.320;2024-03-25T00:12:54;4.10;99.90
17813;DHT22;9030;50.792;8.320;2024-03-25T00:15:22;4.10;99.90
17813;DHT22;9030;50.792;8.320;2024-03-25T00:17:49;4.00;99.90
17813;DHT22;9030;50.792;8.320;2024-03-25T00:20:17;4.10;99.90
17813;DHT22;9030;50.792;8.320;2024-03-25T00:22:43;4.00;99.90
17813;DHT22;9030;50.792;8.320;2024-03-25T00:25:10;4.10;99.90
17813;DHT22;9030;50.792;8.320;2024-03-25T00:27:35;4.10;99.90
17813;DHT22;9030;50.792;8.320;2024-03-25T00:30:02;4.00;99.90
17813;DHT22;9030;50.792;8.320;2024-03-25T00:32:28;4.00;99.90
17813;DHT22;9030;50.792;8.320;2024-03-25T00:34:55;4.00;99.90
17813;DHT22;9030;50.792;8.320;2024-03-25T00:37:22;4.00;99.90
17813;DHT22;9030;50.792;8.320;2024-03-25T00:39:49;4.00;99.90
17813;DHT22;9030;50.792;8.320;2024-03-25T00:42:15;4.00;99.90
17813;DHT22;9030;50.792;8.320;2024-03-25T00:44:41;4.00;99.90
17813;DHT22;9030;50.792;8.320;2024-03-25T00:47:07;4.00;99.90
17813;DHT22;9030;50.792;8.320;2024-03-25T00:49:34;4.00;99.90
17813;DHT22;9030;50.792;8.320;2024-03-25T00:52:00;4.00;99.90
17813;DHT22;9030;50.792;8.320;2024-03-25T00:54:28;3.90;99.90
17813;DHT22;9030;50.792;8.320;2024-03-25T00:56:54;3.90;99.90
17813;DHT22;9030;50.792;8.320;2024-03-25T00:59:21;3.90;99.90
17813;DHT22;9030;50.792;8.320;2024-03-25T01:01:47;3.80;99.90
17813;DHT22;9030;50.792;8.320;2024-03-25T01:04:13;3.80;99.90
17813;DHT22;9030;50.792;8.320;2024-03-25T01:06:39;3.90;99.90
17813;DHT22;9030;50.792;8.320;2024-03-25T01:09:06;3.90;99.90
17813;DHT22;9030;50.792;8.320;2024-03-25T01:11:34;3.90;99.90
17813;DHT22;9030;50.792;8.320;2024-03-25T01:14:01;3.90;99.90
17813;DHT22;9030;50.792;8.320;2024-03-25T01:16:26;3.90;99.90
17813;DHT22;9030;50.792;8.320;2024-03-25T01:18:53;4.00;99.90
17813;DHT22;9030;50.792;8.320;2024-03-25T01:21:19;3.90;99.90
17813;DHT22;9030;50.792;8.320;2024-03-25T01:23:45;3.90;99.90
17813;DHT22;9030;50.792;8.320;2024-03-25T01:26:11;3.90;99.90
17813;DHT22;9030;50.792;8.320;2024-03-25T01:28:39;3.90;99.90
17813;DHT22;9030;50.792;8.320;2024-03-25T01:31:05;3.90;99.90
17813;DHT22;9030;50.792;8.320;2024-03-25T01:33:31;3.80;99.90
17813;DHT22;9030;50.792;8.320;2024-03-25T01:35:57;3.80;99.90
17813;DHT22;9030;50.792;8.320;2024-03-25T01:38:24;3.70;99.90
17813;DHT22;9030;50.792;8.320;2024-03-25T01:40:49;3.70;99.90
17813;DHT22;9030;50.792;8.320;2024-03-25T01:43:16;3.60;99.90
17813;DHT22;9030;50.792;8.320;2024-03-25T01:45:43;3.60;99.90
17813;DHT22;9030;50.792;8.320;2024-03-25T01:48:11;3.60;99.90
17813;DHT22;9030;50.792;8.320;2024-03-25T01:50:42;3.60;99.90
17813;DHT22;9030;50.792;8.320;2024-03-25T01:53:11;3.60;99.90
17813;DHT22;9030;50.792;8.320;2024-03-25T01:55:38;3.70;99.90
17813;DHT22;9030;50.792;8.320;2024-03-25T01:58:05;3.70;99.90
17813;DHT22;9030;50.792;8.320;2024-03-25T02:00:31;3.70;99.90
17813;DHT22;9030;50.792;8.320;2024-03-25T02:03:00;3.70;99.90
17813;DHT22;9030;50.792;8.320;2024-03-25T02:05:26;3.70;99.90
17813;DHT22;9030;50.792;8.320;2024-03-25T02:07:53;3.70;99.90
17813;DHT22;9030;50.792;8.320;2024-03-25T02:10:19;3.80;99.90
17813;DHT22;9030;50.792;8.320;2024-03-25T02:12:47;3.80;99.90
17813;DHT22;9030;50.792;8.320;2024-03-25T02:15:14;3.80;99.90
17813;DHT22;9030;50.792;8.320;2024-03-25T02:17:41;3.80;99.90
17813;DHT22;9030;50.792;8.320;2024-03-25T02:20:10;3.80;99.90
17813;DHT22;9030;50.792;8.320;2024-03-25T02:22:38;3.80;99.90
17813;DHT22;9030;50.792;8.320;2024-03-25T02:25:06;3.80;99.90
17813;DHT22;9030;50.792;8.320;2024-03-25T02:27:35;3.80;99.90
17813;DHT22;9030;50.792;8.320;2024-03-25T02:30:02;3.80;99.90
17813;DHT22;9030;50.792;8.320;2024-03-25T02:32:31;3.80;99.90
17813;DHT22;9030;50.792;8.320;2024-03-25T02:34:57;3.80;99.90
17813;DHT22;9030;50.792;8.320;2024-03-25T02:37:25;3.80;99.90
17813;DHT22;9030;50.792;8.320;2024-03-25T02:39:51;3.80;99.90
17813;DHT22;9030;50.792;8.320;2024-03-25T02:42:18;3.70;99.90
17813;DHT22;9030;50.792;8.320;2024-03-25T02:44:46;3.70;99.90
17813;DHT22;9030;50.792;8.320;2024-03-25T02:47:13;3.70;99.90
17813;DHT22;9030;50.792;8.320;2024-03-25T02:49:39;3.80;99.90
17813;DHT22;9030;50.792;8.320;2024-03-25T02:52:06;3.70;99.90
17813;DHT22;9030;50.792;8.320;2024-03-25T02:54:31;3.70;99.90
17813;DHT22;9030;50.792;8.320;2024-03-25T02:56:58;3.70;99.90
17813;DHT22;9030;50.792;8.320;2024-03-25T02:59:24;3.80;99.90
17813;DHT22;9030;50.792;8.320;2024-03-25T03:01:52;3.70;99.90
17813;DHT22;9030;50.792;8.320;2024-03-25T03:04:17;3.70;99.90
17813;DHT22;9030;50.792;8.320;2024-03-25T03:06:44;3.60;99.90
17813;DHT22;9030;50.792;8.320;2024-03-25T03:09:10;3.30;99.90
17813;DHT22;9030;50.792;8.320;2024-03-25T03:11:36;3.10;99.90
17813;DHT22;9030;50.792;8.320;2024-03-25T03:14:02;3.00;99.90
17813;DHT22;9030;50.792;8.320;2024-03-25T03:16:29;2.90;99.90
17813;DHT22;9030;50.792;8.320;2024-03-25T03:18:56;2.80;99.90
17813;DHT22;9030;50.792;8.320;2024-03-25T03:21:23;2.80;99.90
17813;DHT22;9030;50.792;8.320;2024-03-25T03:23:49;2.70;99.90
17813;DHT22;9030;50.792;8.320;2024-03-25T03:26:15;2.70;99.90
17813;DHT22;9030;50.792;8.320;2024-03-25T03:28:41;2.60;99.90
17813;DHT22;9030;50.792;8.320;2024-03-25T03:31:08;2.60;99.90
17813;DHT22;9030;50.792;8.320;2024-03-25T03:33:34;2.50;99.90
17813;DHT22;9030;50.792;8.320;2024-03-25T03:36:02;2.60;99.90
17813;DHT22;9030;50.792;8.320;2024-03-25T03:38:27;2.50;99.90
17813;DHT22;9030;50.792;8.320;2024-03-25T03:40:58;2.50;99.90
17813;DHT22;9030;50.792;8.320;2024-03-25T03:43:24;2.50;99.90
17813;DHT22;9030;50.792;8.320;2024-03-25T03:45:50;2.50;99.90
17813;DHT22;9030;50.792;8.320;2024-03-25T03:48:16;2.50;99.90
17813;DHT22;9030;50.792;8.320;2024-03-25T03:50:43;2.50;99.90
17813;DHT22;9030;50.792;8.320;2024-03-25T03:53:10;2.60;99.90
17813;DHT22;9030;50.792;8.320;2024-03-25T03:55:37;2.50;99.90
17813;DHT22;9030;50.792;8.320;2024-03-25T03:58:03;2.50;99.90
17813;DHT22;9030;50.792;8.320;2024-03-25T04:00:33;2.50;99.90
17813;DHT22;9030;50.792;8.320;2024-03-25T04:02:59;2.60;99.90
17813;DHT22;9030;50.792;8.320;2024-03-25T04:05:28;2.50;99.90
17813;DHT22;9030;50.792;8.320;2024-03-25T04:07:54;2.40;99.90
17813;DHT22;9030;50.792;8.320;2024-03-25T04:10:22;2.30;99.90
17813;DHT22;9030;50.792;8.320;2024-03-25T04:12:48;2.30;99.90
17813;DHT22;9030;50.792;8.320;2024-03-25T04:15:15;2.30;99.90
17813;DHT22;9030;50.792;8.320;2024-03-25T04:17:43;2.30;99.90
17813;DHT22;9030;50.792;8.320;2024-03-25T04:20:11;2.40;99.90
17813;DHT22;9030;50.792;8.320;2024-03-25T04:22:36;2.50;99.90
17813;DHT22;9030;50.792;8.320;2024-03-25T04:25:04;2.60;99.90
17813;DHT22;9030;50.792;8.320;2024-03-25T04:27:31;2.60;99.90
17813;DHT22;9030;50.792;8.320;2024-03-25T04:29:57;2.70;99.90
17813;DHT22;9030;50.792;8.320;2024-03-25T04:32:23;2.70;99.90
17813;DHT22;9030;50.792;8.320;2024-03-25T04:34:50;2.70;99.90
17813;DHT22;9030;50.792;8.320;2024-03-25T04:37:15;2.70;99.90
17813;DHT22;9030;50.792;8.320;2024-03-25T04:39:41;2.60;99.90
17813;DHT22;9030;50.792;8.320;2024-03-25T04:42:07;2.60;99.90
17813;DHT22;9030;50.792;8.320;2024-03-25T04:44:34;2.50;99.90
17813;DHT22;9030;50.792;8.320;2024-03-25T04:47:00;2.50;99.90
17813;DHT22;9030;50.792;8.320;2024-03-25T04:49:25;2.50;99.90
17813;DHT22;9030;50.792;8.320;2024-03-25T04:51:51;2.40;99.90
17813;DHT22;9030;50.792;8.320;2024-03-25T04:54:17;2.30;99.90
17813;DHT22;9030;50.792;8.320;2024-03-25T04:56:43;2.20;99.90
17813;DHT22;9030;50.792;8.320;2024-03-25T04:59:09;2.20;99.90
17813;DHT22;9030;50.792;8.320;2024-03-25T05:01:36;2.20;99.90
17813;DHT22;9030;50.792;8.320;2024-03-25T05:04:02;2.10;99.90
17813;DHT22;9030;50.792;8.320;2024-03-25T05:06:28;2.10;99.90
17813;DHT22;9030;50.792;8.320;2024-03-25T05:08:54;2.00;99.90
17813;DHT22;9030;50.792;8.320;2024-03-25T05:11:19;2.00;99.90
17813;DHT22;9030;50.792;8.320;2024-03-25T05:13:45;2.00;99.90
17813;DHT22;9030;50.792;8.320;2024-03-25T05:16:11;2.10;99.90
17813;DHT22;9030;50.792;8.320;2024-03-25T05:18:38;2.10;99.90
17813;DHT22;9030;50.792;8.320;2024-03-25T05:21:04;2.20;99.90
17813;DHT22;9030;50.792;8.320;2024-03-25T05:23:30;2.30;99.90
17813;DHT22;9030;50.792;8.320;2024-03-25T05:25:55;2.30;99.90
17813;DHT22;9030;50.792;8.320;2024-03-25T05:28:21;2.30;99.90
17813;DHT22;9030;50.792;8.320;2024-03-25T05:30:47;2.30;99.90
17813;DHT22;9030;50.792;8.320;2024-03-25T05:33:13;2.30;99.90
17813;DHT22;9030;50.792;8.320;2024-03-25T05:35:40;2.30;99.90
17813;DHT22;9030;50.792;8.320;2024-03-25T05:38:06;2.40;99.90
17813;DHT22;9030;50.792;8.320;2024-03-25T05:40:32;2.40;99.90
17813;DHT22;9030;50.792;8.320;2024-03-25T05:42:58;2.40;99.90
17813;DHT22;9030;50.792;8.320;2024-03-25T05:45:24;2.40;99.90
17813;DHT22;9030;50.792;8.320;2024-03-25T05:47:50;2.40;99.90
17813;DHT22;9030;50.792;8.320;2024-03-25T05:50:16;2.40;99.90
17813;DHT22;9030;50.792;8.320;2024-03-25T05:52:43;2.50;99.90
17813;DHT22;9030;50.792;8.320;2024-03-25T05:55:09;2.40;99.90
17813;DHT22;9030;50.792;8.320;2024-03-25T05:57:35;2.50;99.90
17813;DHT22;9030;50.792;8.320;2024-03-25T06:00:01;2.60;99.90
17813;DHT22;9030;50.792;8.320;2024-03-25T06:02:27;2.70;99.90
17813;DHT22;9030;50.792;8.320;2024-03-25T06:04:53;2.80;99.90
17813;DHT22;9030;50.792;8.320;2024-03-25T06:07:19;2.90;99.90
17813;DHT22;9030;50.792;8.320;2024-03-25T06:09:46;3.00;99.90
17813;DHT22;9030;50.792;8.320;2024-03-25T06:12:12;3.00;99.90
17813;DHT22;9030;50.792;8.320;2024-03-25T06:14:38;3.00;99.90
17813;DHT22;9030;50.792;8.320;2024-03-25T06:17:04;3.00;99.90
17813;DHT22;9030;50.792;8.320;2024-03-25T06:19:30;3.10;99.90
17813;DHT22;9030;50.792;8.320;2024-03-25T06:21:56;3.30;99.90
17813;DHT22;9030;50.792;8.320;2024-03-25T06:24:21;3.50;99.90
17813;DHT22;9030;50.792;8.320;2024-03-25T06:26:48;3.70;99.90
17813;DHT22;9030;50.792;8.320;2024-03-25T06:29:14;3.70;99.90
17813;DHT22;9030;50.792;8.320;2024-03-25T06:31:40;4.00;99.90
17813;DHT22;9030;50.792;8.320;2024-03-25T06:34:24;4.20;99.90
17813;DHT22;9030;50.792;8.320;2024-03-25T06:36:51;4.70;99.90
17813;DHT22;9030;50.792;8.320;2024-03-25T06:39:17;4.70;99.90
17813;DHT22;9030;50.792;8.320;2024-03-25T06:41:42;4.60;99.90
17813;DHT22;9030;50.792;8.320;2024-03-25T06:44:09;4.70;99.90
17813;DHT22;9030;50.792;8.320;2024-03-25T06:46:35;4.70;99.90
17813;DHT22;9030;50.792;8.320;2024-03-25T06:49:01;4.90;99.90
17813;DHT22;9030;50.792;8.320;2024-03-25T06:51:27;5.10;99.90
17813;DHT22;9030;50.792;8.320;2024-03-25T06:53:53;5.40;99.90
17813;DHT22;9030;50.792;8.320;2024-03-25T06:56:18;5.60;99.90
17813;DHT22;9030;50.792;8.320;2024-03-25T06:58:44;5.60;99.90
17813;DHT22;9030;50.792;8.320;2024-03-25T07:01:11;5.60;99.90
17813;DHT22;9030;50.792;8.320;2024-03-25T07:03:38;5.50;99.90
17813;DHT22;9030;50.792;8.320;2024-03-25T07:06:04;5.70;99.90
17813;DHT22;9030;50.792;8.320;2024-03-25T07:08:30;6.10;99.90
17813;DHT22;9030;50.792;8.320;2024-03-25T07:10:56;6.10;99.90
17813;DHT22;9030;50.792;8.320;2024-03-25T07:13:22;6.20;99.90
17813;DHT22;9030;50.792;8.320;2024-03-25T07:15:48;5.80;99.90
17813;DHT22;9030;50.792;8.320;2024-03-25T07:18:15;5.50;99.90
17813;DHT22;9030;50.792;8.320;2024-03-25T07:20:42;5.10;99.90
17813;DHT22;9030;50.792;8.320;2024-03-25T07:23:08;4.90;99.90
17813;DHT22;9030;50.792;8.320;2024-03-25T07:25:34;4.90;99.90
17813;DHT22;9030;50.792;8.320;2024-03-25T07:28:00;4.90;99.90
17813;DHT22;9030;50.792;8.320;2024-03-25T07:30:26;5.00;99.90
17813;DHT22;9030;50.792;8.320;2024-03-25T07:32:53;5.10;99.90
17813;DHT22;9030;50.792;8.320;2024-03-25T07:35:20;5.60;99.90
17813;DHT22;9030;50.792;8.320;2024-03-25T07:37:46;5.90;99.90
17813;DHT22;9030;50.792;8.320;2024-03-25T07:40:12;6.00;99.90
17813;DHT22;9030;50.792;8.320;2024-03-25T07:42:38;5.80;99.90
17813;DHT22;9030;50.792;8.320;2024-03-25T07:45:05;5.90;99.90
17813;DHT22;9030;50.792;8.320;2024-03-25T07:47:32;5.90;99.90
17813;DHT22;9030;50.792;8.320;2024-03-25T07:49:57;5.80;99.90
17813;DHT22;9030;50.792;8.320;2024-03-25T07:52:25;5.70;99.90
17813;DHT22;9030;50.792;8.320;2024-03-25T07:54:50;5.30;99.90
17813;DHT22;9030;50.792;8.320;2024-03-25T07:57:17;5.20;99.90
17813;DHT22;9030;50.792;8.320;2024-03-25T07:59:42;5.10;99.90
17813;DHT22;9030;50.792;8.320;2024-03-25T08:02:08;5.00;99.90
17813;DHT22;9030;50.792;8.320;2024-03-25T08:04:34;5.00;99.90
17813;DHT22;9030;50.792;8.320;2024-03-25T08:07:00;5.80;99.90
17813;DHT22;9030;50.792;8.320;2024-03-25T08:09:27;6.70;99.90
17813;DHT22;9030;50.792;8.320;2024-03-25T08:11:58;6.50;99.90
17813;DHT22;9030;50.792;8.320;2024-03-25T08:14:39;6.60;99.90
17813;DHT22;9030;50.792;8.320;2024-03-25T08:17:05;6.40;99.90
17813;DHT22;9030;50.792;8.320;2024-03-25T08:19:30;6.50;99.90
17813;DHT22;9030;50.792;8.320;2024-03-25T08:21:57;6.50;99.90
17813;DHT22;9030;50.792;8.320;2024-03-25T08:24:22;6.40;99.90
17813;DHT22;9030;50.792;8.320;2024-03-25T08:26:49;6.50;99.90
17813;DHT22;9030;50.792;8.320;2024-03-25T08:29:15;6.60;99.90
17813;DHT22;9030;50.792;8.320;2024-03-25T08:31:41;6.50;99.90
17813;DHT22;9030;50.792;8.320;2024-03-25T08:34:07;6.50;99.90
17813;DHT22;9030;50.792;8.320;2024-03-25T08:36:32;6.50;99.90
17813;DHT22;9030;50.792;8.320;2024-03-25T08:38:58;6.60;99.90
17813;DHT22;9030;50.792;8.320;2024-03-25T08:41:24;6.60;99.90
17813;DHT22;9030;50.792;8.320;2024-03-25T08:43:51;6.50;99.90
17813;DHT22;9030;50.792;8.320;2024-03-25T08:46:17;6.50;99.90
17813;DHT22;9030;50.792;8.320;2024-03-25T08:48:43;6.40;99.90
17813;DHT22;9030;50.792;8.320;2024-03-25T08:51:08;6.30;99.90
17813;DHT22;9030;50.792;8.320;2024-03-25T08:53:34;6.20;99.90
17813;DHT22;9030;50.792;8.320;2024-03-25T08:56:00;6.30;99.90
17813;DHT22;9030;50.792;8.320;2024-03-25T08:58:26;6.30;99.90
17813;DHT22;9030;50.792;8.320;2024-03-25T09:00:53;6.10;99.90
17813;DHT22;9030;50.792;8.320;2024-03-25T09:03:19;6.50;99.90
17813;DHT22;9030;50.792;8.320;2024-03-25T09:05:44;6.90;99.90
17813;DHT22;9030;50.792;8.320;2024-03-25T09:08:10;7.50;99.90
17813;DHT22;9030;50.792;8.320;2024-03-25T09:10:36;7.40;99.90
17813;DHT22;9030;50.792;8.320;2024-03-25T09:13:21;7.10;99.90
17813;DHT22;9030;50.792;8.320;2024-03-25T09:15:46;7.20;99.90
17813;DHT22;9030;50.792;8.320;2024-03-25T09:18:13;7.10;99.90
17813;DHT22;9030;50.792;8.320;2024-03-25T09:20:39;7.10;99.90
17813;DHT22;9030;50.792;8.320;2024-03-25T09:23:05;7.30;99.90
17813;DHT22;9030;50.792;8.320;2024-03-25T09:25:31;7.30;99.90
17813;DHT22;9030;50.792;8.320;2024-03-25T09:27:56;7.20;99.90
17813;DHT22;9030;50.792;8.320;2024-03-25T09:30:22;7.30;99.90
17813;DHT22;9030;50.792;8.320;2024-03-25T09:32:48;7.10;99.90
17813;DHT22;9030;50.792;8.320;2024-03-25T09:35:15;7.20;99.90
17813;DHT22;9030;50.792;8.320;2024-03-25T09:37:41;7.10;99.90
17813;DHT22;9030;50.792;8.320;2024-03-25T09:40:08;7.00;99.90
17813;DHT22;9030;50.792;8.320;2024-03-25T09:42:39;7.20;99.90
17813;DHT22;9030;50.792;8.320;2024-03-25T09:45:08;7.00;99.90
17813;DHT22;9030;50.792;8.320;2024-03-25T09:47:35;7.00;99.90
17813;DHT22;9030;50.792;8.320;2024-03-25T09:50:02;6.90;99.90
17813;DHT22;9030;50.792;8.320;2024-03-25T09:52:31;6.80;99.90
17813;DHT22;9030;50.792;8.320;2024-03-25T09:54:57;7.00;99.90
17813;DHT22;9030;50.792;8.320;2024-03-25T09:57:23;7.50;99.90
17813;DHT22;9030;50.792;8.320;2024-03-25T09:59:50;7.90;99.90
17813;DHT22;9030;50.792;8.320;2024-03-25T10:02:17;8.10;99.90
17813;DHT22;9030;50.792;8.320;2024-03-25T10:04:45;8.10;99.90
17813;DHT22;9030;50.792;8.320;2024-03-25T10:07:21;8.20;99.90
17813;DHT22;9030;50.792;8.320;2024-03-25T10:09:48;8.00;99.90
17813;DHT22;9030;50.792;8.320;2024-03-25T10:12:14;7.60;99.90
17813;DHT22;9030;50.792;8.320;2024-03-25T10:14:40;7.90;99.90
17813;DHT22;9030;50.792;8.320;2024-03-25T10:17:06;7.90;99.90
17813;DHT22;9030;50.792;8.320;2024-03-25T10:19:32;8.30;99.90
17813;DHT22;9030;50.792;8.320;2024-03-25T10:22:05;8.20;99.90
17813;DHT22;9030;50.792;8.320;2024-03-25T10:24:39;8.00;99.90
17813;DHT22;9030;50.792;8.320;2024-03-25T10:27:10;8.10;99.90
17813;DHT22;9030;50.792;8.320;2024-03-25T10:29:36;8.50;99.90
17813;DHT22;9030;50.792;8.320;2024-03-25T10:32:02;9.00;99.90
17813;DHT22;9030;50.792;8.320;2024-03-25T10:34:28;9.10;99.90
17813;DHT22;9030;50.792;8.320;2024-03-25T10:36:57;9.20;99.90
17813;DHT22;9030;50.792;8.320;2024-03-25T10:39:26;9.20;99.90
17813;DHT22;9030;50.792;8.320;2024-03-25T10:41:55;8.60;99.90
17813;DHT22;9030;50.792;8.320;2024-03-25T10:44:23;8.70;99.90
17813;DHT22;9030;50.792;8.320;2024-03-25T10:46:53;8.60;99.90
17813;DHT22;9030;50.792;8.320;2024-03-25T10:49:30;8.70;99.90
17813;DHT22;9030;50.792;8.320;2024-03-25T10:51:59;8.90;99.90
17813;DHT22;9030;50.792;8.320;2024-03-25T10:54:25;8.50;99.90
17813;DHT22;9030;50.792;8.320;2024-03-25T10:56:51;8.40;99.90
17813;DHT22;9030;50.792;8.320;2024-03-25T10:59:18;8.30;99.90
17813;DHT22;9030;50.792;8.320;2024-03-25T11:01:47;8.60;99.90
17813;DHT22;9030;50.792;8.320;2024-03-25T11:04:13;9.40;99.90
17813;DHT22;9030;50.792;8.320;2024-03-25T11:06:40;10.40;99.90
17813;DHT22;9030;50.792;8.320;2024-03-25T11:09:05;10.90;99.90
17813;DHT22;9030;50.792;8.320;2024-03-25T11:11:31;11.10;99.90
17813;DHT22;9030;50.792;8.320;2024-03-25T11:13:58;11.70;99.90
17813;DHT22;9030;50.792;8.320;2024-03-25T11:16:29;11.90;99.90
17813;DHT22;9030;50.792;8.320;2024-03-25T11:19:01;11.80;99.90
17813;DHT22;9030;50.792;8.320;2024-03-25T11:21:27;11.80;99.90
17813;DHT22;9030;50.792;8.320;2024-03-25T11:23:53;12.10;99.90
17813;DHT22;9030;50.792;8.320;2024-03-25T11:26:20;12.00;99.90
17813;DHT22;9030;50.792;8.320;2024-03-25T11:28:46;12.10;99.90
17813;DHT22;9030;50.792;8.320;2024-03-25T11:31:12;12.00;99.90
17813;DHT22;9030;50.792;8.320;2024-03-25T11:33:38;12.00;99.90
17813;DHT22;9030;50.792;8.320;2024-03-25T11:36:06;12.50;99.90
17813;DHT22;9030;50.792;8.320;2024-03-25T11:38:32;12.60;99.90
17813;DHT22;9030;50.792;8.320;2024-03-25T11:40:58;12.70;99.90
17813;DHT22;9030;50.792;8.320;2024-03-25T11:43:24;12.30;99.90
17813;DHT22;9030;50.792;8.320;2024-03-25T11:45:50;12.20;99.90
17813;DHT22;9030;50.792;8.320;2024-03-25T11:48:16;11.60;99.90
17813;DHT22;9030;50.792;8.320;2024-03-25T11:50:45;11.90;99.90
17813;DHT22;9030;50.792;8.320;2024-03-25T11:53:13;12.10;99.90
17813;DHT22;9030;50.792;8.320;2024-03-25T11:55:39;12.20;99.90
17813;DHT22;9030;50.792;8.320;2024-03-25T11:58:05;12.10;99.90
17813;DHT22;9030;50.792;8.320;2024-03-25T12:00:31;12.40;99.90
17813;DHT22;9030;50.792;8.320;2024-03-25T12:02:56;12.50;99.90
17813;DHT22;9030;50.792;8.320;2024-03-25T12:05:22;12.10;99.90
17813;DHT22;9030;50.792;8.320;2024-03-25T12:07:48;12.20;99.90
17813;DHT22;9030;50.792;8.320;2024-03-25T12:10:16;12.60;99.90
17813;DHT22;9030;50.792;8.320;2024-03-25T12:13:00;12.30;99.90
17813;DHT22;9030;50.792;8.320;2024-03-25T12:15:26;12.50;99.90
17813;DHT22;9030;50.792;8.320;2024-03-25T12:17:52;12.40;99.90
17813;DHT22;9030;50.792;8.320;2024-03-25T12:20:19;11.80;99.90
17813;DHT22;9030;50.792;8.320;2024-03-25T12:22:45;12.00;99.90
17813;DHT22;9030;50.792;8.320;2024-03-25T12:25:11;12.00;99.90
17813;DHT22;9030;50.792;8.320;2024-03-25T12:27:39;12.10;99.90
17813;DHT22;9030;50.792;8.320;2024-03-25T12:30:06;11.40;99.90
17813;DHT22;9030;50.792;8.320;2024-03-25T12:32:42;11.60;99.90
17813;DHT22;9030;50.792;8.320;2024-03-25T12:35:09;11.70;99.90
17813;DHT22;9030;50.792;8.320;2024-03-25T12:37:36;11.60;99.90
17813;DHT22;9030;50.792;8.320;2024-03-25T12:40:04;11.60;99.90
17813;DHT22;9030;50.792;8.320;2024-03-25T12:42:30;11.30;99.90
17813;DHT22;9030;50.792;8.320;2024-03-25T12:44:57;11.20;99.90
17813;DHT22;9030;50.792;8.320;2024-03-25T12:47:23;11.00;99.90
17813;DHT22;9030;50.792;8.320;2024-03-25T12:49:48;11.00;99.90
17813;DHT22;9030;50.792;8.320;2024-03-25T12:52:14;11.00;99.90
17813;DHT22;9030;50.792;8.320;2024-03-25T12:54:40;10.80;99.90
17813;DHT22;9030;50.792;8.320;2024-03-25T12:57:07;10.30;99.90
17813;DHT22;9030;50.792;8.320;2024-03-25T12:59:33;10.50;99.90
17813;DHT22;9030;50.792;8.320;2024-03-25T13:02:00;10.20;99.90
17813;DHT22;9030;50.792;8.320;2024-03-25T13:04:26;10.40;99.90
17813;DHT22;9030;50.792;8.320;2024-03-25T13:06:52;10.50;99.90
17813;DHT22;9030;50.792;8.320;2024-03-25T13:09:18;10.50;99.90
17813;DHT22;9030;50.792;8.320;2024-03-25T13:11:44;10.60;99.90
17813;DHT22;9030;50.792;8.320;2024-03-25T13:14:11;10.60;99.90
17813;DHT22;9030;50.792;8.320;2024-03-25T13:16:37;10.60;99.90
17813;DHT22;9030;50.792;8.320;2024-03-25T13:19:04;10.60;99.90
17813;DHT22;9030;50.792;8.320;2024-03-25T13:21:30;10.80;99.90
17813;DHT22;9030;50.792;8.320;2024-03-25T13:23:56;10.70;99.90
17813;DHT22;9030;50.792;8.320;2024-03-25T13:26:22;10.90;99.90
17813;DHT22;9030;50.792;8.320;2024-03-25T13:28:48;11.10;99.90
17813;DHT22;9030;50.792;8.320;2024-03-25T13:31:14;10.90;99.90
17813;DHT22;9030;50.792;8.320;2024-03-25T13:33:41;10.50;99.90
17813;DHT22;9030;50.792;8.320;2024-03-25T13:36:08;10.60;99.90
17813;DHT22;9030;50.792;8.320;2024-03-25T13:38:34;10.80;99.90
17813;DHT22;9030;50.792;8.320;2024-03-25T13:41:01;10.80;99.90
17813;DHT22;9030;50.792;8.320;2024-03-25T13:43:27;10.70;99.90
17813;DHT22;9030;50.792;8.320;2024-03-25T13:45:53;10.70;99.90
17813;DHT22;9030;50.792;8.320;2024-03-25T13:48:18;10.70;99.90
17813;DHT22;9030;50.792;8.320;2024-03-25T13:50:44;10.90;99.90
17813;DHT22;9030;50.792;8.320;2024-03-25T13:53:12;10.90;99.90
17813;DHT22;9030;50.792;8.320;2024-03-25T13:55:37;10.70;99.90
17813;DHT22;9030;50.792;8.320;2024-03-25T13:58:03;10.50;99.90
17813;DHT22;9030;50.792;8.320;2024-03-25T14:00:29;10.40;99.90
17813;DHT22;9030;50.792;8.320;2024-03-25T14:02:55;10.40;99.90
17813;DHT22;9030;50.792;8.320;2024-03-25T14:05:21;10.50;99.90
17813;DHT22;9030;50.792;8.320;2024-03-25T14:07:47;10.40;99.90
17813;DHT22;9030;50.792;8.320;2024-03-25T14:10:14;10.30;99.90
17813;DHT22;9030;50.792;8.320;2024-03-25T14:12:40;10.10;99.90
17813;DHT22;9030;50.792;8.320;2024-03-25T14:15:07;10.10;99.90
17813;DHT22;9030;50.792;8.320;2024-03-25T14:17:33;10.20;99.90
17813;DHT22;9030;50.792;8.320;2024-03-25T14:19:59;10.10;99.90
17813;DHT22;9030;50.792;8.320;2024-03-25T14:22:25;10.20;99.90
17813;DHT22;9030;50.792;8.320;2024-03-25T14:24:51;10.30;99.90
17813;DHT22;9030;50.792;8.320;2024-03-25T14:27:19;10.40;99.90
17813;DHT22;9030;50.792;8.320;2024-03-25T14:29:45;10.50;99.90
17813;DHT22;9030;50.792;8.320;2024-03-25T14:32:11;10.30;99.90
17813;DHT22;9030;50.792;8.320;2024-03-25T14:34:37;10.10;99.90
17813;DHT22;9030;50.792;8.320;2024-03-25T14:37:02;10.10;99.90
17813;DHT22;9030;50.792;8.320;2024-03-25T14:39:28;10.00;99.90
17813;DHT22;9030;50.792;8.320;2024-03-25T14:41:54;10.00;99.90
17813;DHT22;9030;50.792;8.320;2024-03-25T14:44:21;10.10;99.90
17813;DHT22;9030;50.792;8.320;2024-03-25T14:46:47;10.20;99.90
17813;DHT22;9030;50.792;8.320;2024-03-25T14:49:13;10.20;99.90
17813;DHT22;9030;50.792;8.320;2024-03-25T14:51:39;10.10;99.90
17813;DHT22;9030;50.792;8.320;2024-03-25T14:54:05;10.20;99.90
17813;DHT22;9030;50.792;8.320;2024-03-25T14:56:31;9.90;99.90
17813;DHT22;9030;50.792;8.320;2024-03-25T14:58:57;9.80;99.90
17813;DHT22;9030;50.792;8.320;2024-03-25T15:01:25;10.00;99.90
17813;DHT22;9030;50.792;8.320;2024-03-25T15:03:50;10.10;99.90
17813;DHT22;9030;50.792;8.320;2024-03-25T15:06:16;10.10;99.90
17813;DHT22;9030;50.792;8.320;2024-03-25T15:08:42;10.10;99.90
17813;DHT22;9030;50.792;8.320;2024-03-25T15:11:10;10.00;99.90
17813;DHT22;9030;50.792;8.320;2024-03-25T15:13:36;10.20;99.90
17813;DHT22;9030;50.792;8.320;2024-03-25T15:16:04;10.40;99.90
17813;DHT22;9030;50.792;8.320;2024-03-25T15:18:31;10.10;99.90
17813;DHT22;9030;50.792;8.320;2024-03-25T15:21:01;9.90;99.90
17813;DHT22;9030;50.792;8.320;2024-03-25T15:23:26;9.80;99.90
17813;DHT22;9030;50.792;8.320;2024-03-25T15:25:52;10.00;99.90
17813;DHT22;9030;50.792;8.320;2024-03-25T15:28:19;10.40;99.90
17813;DHT22;9030;50.792;8.320;2024-03-25T15:30:45;10.40;99.90
17813;DHT22;9030;50.792;8.320;2024-03-25T15:33:11;10.40;99.90
17813;DHT22;9030;50.792;8.320;2024-03-25T15:35:38;10.40;99.90
17813;DHT22;9030;50.792;8.320;2024-03-25T15:38:04;10.40;99.90
17813;DHT22;9030;50.792;8.320;2024-03-25T15:40:30;10.50;99.90
17813;DHT22;9030;50.792;8.320;2024-03-25T15:42:56;10.10;99.90
17813;DHT22;9030;50.792;8.320;2024-03-25T15:45:22;9.90;99.90
17813;DHT22;9030;50.792;8.320;2024-03-25T15:47:49;9.90;99.90
17813;DHT22;9030;50.792;8.320;2024-03-25T15:50:15;10.00;99.90
17813;DHT22;9030;50.792;8.320;2024-03-25T15:52:42;10.20;99.90